Time;durP1;ratioP1;P1;durP2;ratioP2;P2;SDS_P1;SDS_P2;PMS_P1;PMS_P2;Temp;Humidity;BMP_temperature;BMP_pressure;BME280_temperature;BME280_humidity;BME280_pressure;Samples;Min_cycle;Max_cycle;Signal;HPM_P1;HPM_P2
2023/07/17 00:02:10;;;;;;;14.43;6.65;;;28.10;96.70;;;;;;4929858;29;20418;-80
2023/07/17 00:04:38;;;;;;;11.48;5.65;;;28.10;96.70;;;;;;4920330;29;20142;-78
2023/07/17 00:07:07;;;;;;;9.45;5.15;;;28.10;96.70;;;;;;4925033;29;20219;-78
2023/07/17 00:09:35;;;;;;;14.73;5.75;;;28.10;96.70;;;;;;4925459;29;20581;-78
2023/07/17 00:12:03;;;;;;;10.93;5.25;;;28.00;96.70;;;;;;4927564;29;20054;-77
2023/07/17 00:14:31;;;;;;;7.80;4.95;;;28.00;96.70;;;;;;4925659;29;20052;-78
2023/07/17 00:16:58;;;;;;;11.10;5.32;;;28.00;96.70;;;;;;4914856;29;20166;-78
2023/07/17 00:19:28;;;;;;;8.15;4.97;;;28.00;96.70;;;;;;4929546;29;20043;-79
2023/07/17 00:21:55;;;;;;;7.28;5.13;;;28.00;96.70;;;;;;4926794;29;20050;-78
2023/07/17 00:24:23;;;;;;;9.70;5.38;;;27.90;96.70;;;;;;4894304;29;20091;-78
2023/07/17 00:26:51;;;;;;;11.55;5.60;;;27.80;96.70;;;;;;4901193;29;20048;-78
2023/07/17 00:29:22;;;;;;;7.78;5.47;;;27.90;96.70;;;;;;4913216;29;20559;-78
2023/07/17 00:31:50;;;;;;;9.63;5.47;;;27.80;96.70;;;;;;4915570;29;20054;-78
2023/07/17 00:34:18;;;;;;;11.88;5.07;;;27.90;96.70;;;;;;4918299;29;20130;-78
2023/07/17 00:36:49;;;;;;;7.60;4.80;;;27.90;96.70;;;;;;4915880;29;20127;-79
2023/07/17 00:39:18;;;;;;;11.32;4.50;;;28.00;96.70;;;;;;4925463;29;20047;-78
2023/07/17 00:41:49;;;;;;;9.10;4.65;;;27.90;96.70;;;;;;4925394;29;20470;-78
2023/07/17 00:44:17;;;;;;;10.80;5.28;;;27.90;96.70;;;;;;4926800;29;20043;-78
2023/07/17 00:46:46;;;;;;;10.15;4.95;;;27.80;96.70;;;;;;4927172;29;20078;-79
2023/07/17 00:49:14;;;;;;;7.43;4.55;;;27.80;96.70;;;;;;4923289;29;20114;-77
2023/07/17 00:51:43;;;;;;;12.93;5.28;;;27.90;96.70;;;;;;4924435;28;20056;-78
2023/07/17 00:54:16;;;;;;;11.38;5.10;;;27.80;96.70;;;;;;4903077;29;20062;-78
2023/07/17 00:56:45;;;;;;;8.82;4.82;;;27.60;96.70;;;;;;4924261;29;20074;-80
2023/07/17 00:59:14;;;;;;;8.32;5.25;;;27.60;96.70;;;;;;4921460;29;20046;-78
2023/07/17 01:01:43;;;;;;;7.72;4.63;;;27.50;96.70;;;;;;4924170;29;20062;-77
2023/07/17 01:04:10;;;;;;;10.10;5.18;;;27.60;96.70;;;;;;4918111;29;20672;-78
2023/07/17 01:06:39;;;;;;;5.75;4.65;;;27.70;96.70;;;;;;4926806;29;20060;-78
2023/07/17 01:09:08;;;;;;;5.80;4.45;;;27.60;96.70;;;;;;4909742;29;20103;-78
2023/07/17 01:11:38;;;;;;;9.50;5.10;;;27.60;96.70;;;;;;4925132;29;20087;-79
2023/07/17 01:14:13;;;;;;;9.73;5.20;;;27.60;96.70;;;;;;4913510;29;20509;-78
2023/07/17 01:16:41;;;;;;;7.23;4.97;;;27.60;96.70;;;;;;4910570;29;20055;-78
2023/07/17 01:19:09;;;;;;;9.32;5.28;;;27.50;96.70;;;;;;4899356;29;20331;-78
2023/07/17 01:21:57;;;;;;;9.43;4.50;;;27.40;96.70;;;;;;4924400;29;20086;-79
2023/07/17 01:24:27;;;;;;;10.45;4.60;;;27.40;96.70;;;;;;4920707;29;20142;-79
2023/07/17 01:26:55;;;;;;;8.18;4.50;;;27.40;96.70;;;;;;4925865;29;20382;-78
2023/07/17 01:29:24;;;;;;;11.50;4.70;;;27.30;96.70;;;;;;4926547;29;20106;-79
2023/07/17 01:31:52;;;;;;;6.40;4.47;;;27.30;96.70;;;;;;4923236;29;20115;-79
2023/07/17 01:34:20;;;;;;;7.10;5.18;;;27.20;96.70;;;;;;4927920;29;20056;-78
2023/07/17 01:36:47;;;;;;;10.43;4.88;;;27.20;96.70;;;;;;4910515;29;20054;-79
2023/07/17 01:39:15;;;;;;;9.52;4.88;;;27.10;96.70;;;;;;4921111;29;20098;-78
2023/07/17 01:41:45;;;;;;;10.02;4.88;;;27.10;96.70;;;;;;4906769;29;20047;-79
2023/07/17 01:44:13;;;;;;;10.23;5.38;;;27.10;96.70;;;;;;4899954;29;20051;-78
2023/07/17 01:46:42;;;;;;;9.15;4.50;;;27.10;96.70;;;;;;4919382;29;20766;-79
2023/07/17 01:49:10;;;;;;;10.95;5.05;;;27.10;96.70;;;;;;4926943;29;20047;-78
2023/07/17 01:51:38;;;;;;;6.47;4.53;;;27.20;96.70;;;;;;4929568;29;20070;-78
2023/07/17 01:54:06;;;;;;;8.73;5.00;;;27.10;96.70;;;;;;4898891;29;20099;-80
2023/07/17 01:56:33;;;;;;;9.40;4.88;;;27.10;96.70;;;;;;4924297;29;20058;-79
2023/07/17 01:59:03;;;;;;;7.32;4.30;;;27.10;96.70;;;;;;4913645;29;20036;-78
2023/07/17 02:01:32;;;;;;;10.10;4.82;;;27.10;96.70;;;;;;4914041;29;20075;-79
2023/07/17 02:04:01;;;;;;;8.60;4.43;;;27.00;96.70;;;;;;4929964;28;20044;-79
2023/07/17 02:06:28;;;;;;;7.82;4.63;;;26.90;96.70;;;;;;4921806;29;20047;-78
2023/07/17 02:08:56;;;;;;;9.25;5.20;;;26.90;96.70;;;;;;4929729;29;20309;-78
2023/07/17 02:11:27;;;;;;;7.82;4.93;;;26.90;96.70;;;;;;4930586;29;20143;-78
2023/07/17 02:13:55;;;;;;;9.27;4.78;;;26.90;96.70;;;;;;4912414;29;20451;-78
2023/07/17 02:16:25;;;;;;;11.30;5.70;;;26.80;96.70;;;;;;4929784;29;20043;-78
2023/07/17 02:18:53;;;;;;;10.15;4.47;;;26.80;96.70;;;;;;4928830;29;20049;-78
2023/07/17 02:21:21;;;;;;;7.20;4.40;;;26.90;96.70;;;;;;4917078;29;20577;-78
2023/07/17 02:23:49;;;;;;;7.38;4.13;;;27.00;96.70;;;;;;4897728;29;20083;-79
2023/07/17 02:26:17;;;;;;;8.68;4.38;;;27.00;96.70;;;;;;4915397;29;20055;-79
2023/07/17 02:28:44;;;;;;;9.10;4.78;;;26.90;96.70;;;;;;4911035;29;20047;-78
2023/07/17 02:31:12;;;;;;;8.05;4.28;;;26.90;96.70;;;;;;4930708;29;20050;-78
2023/07/17 02:33:42;;;;;;;8.15;4.70;;;26.90;96.70;;;;;;4896564;29;20055;-78
2023/07/17 02:36:10;;;;;;;8.05;4.55;;;26.90;96.70;;;;;;4927581;29;20067;-78
2023/07/17 02:38:38;;;;;;;10.77;5.40;;;26.90;96.70;;;;;;4908279;29;20055;-79
2023/07/17 02:41:05;;;;;;;7.35;4.65;;;26.90;96.70;;;;;;4912245;29;20047;-78
2023/07/17 02:43:33;;;;;;;13.98;5.28;;;26.90;96.70;;;;;;4896653;29;20083;-79
2023/07/17 02:46:01;;;;;;;6.78;4.50;;;26.80;96.70;;;;;;4912072;29;20047;-78
2023/07/17 02:48:29;;;;;;;9.20;4.75;;;26.80;96.70;;;;;;4911731;29;20061;-78
2023/07/17 02:50:58;;;;;;;9.60;4.70;;;26.80;96.70;;;;;;4929258;29;20076;-79
2023/07/17 02:53:26;;;;;;;7.97;4.82;;;26.90;96.70;;;;;;4914843;29;20048;-78
2023/07/17 02:55:54;;;;;;;10.50;5.20;;;26.80;96.70;;;;;;4926944;29;20043;-78
2023/07/17 02:58:21;;;;;;;9.68;5.57;;;26.70;96.70;;;;;;4913684;29;20486;-77
2023/07/17 03:00:49;;;;;;;12.35;5.38;;;26.70;96.70;;;;;;4928981;29;20524;-78
2023/07/17 03:03:17;;;;;;;9.38;4.95;;;26.70;96.70;;;;;;4929524;29;20047;-78
2023/07/17 03:05:45;;;;;;;8.13;4.90;;;26.80;96.70;;;;;;4910743;29;20094;-78
2023/07/17 03:08:15;;;;;;;8.13;4.78;;;26.80;96.70;;;;;;4928818;29;20043;-78
2023/07/17 03:10:43;;;;;;;7.65;4.75;;;26.70;96.70;;;;;;4927592;29;20043;-78
2023/07/17 03:13:11;;;;;;;11.02;4.75;;;26.70;96.70;;;;;;4914034;29;20051;-79
2023/07/17 03:15:39;;;;;;;9.35;4.70;;;26.70;96.70;;;;;;4926983;29;20046;-78
2023/07/17 03:18:07;;;;;;;9.02;4.78;;;26.60;96.70;;;;;;4929021;29;20484;-78
2023/07/17 03:20:41;;;;;;;10.27;5.05;;;26.50;96.70;;;;;;4906587;29;20051;-80
2023/07/17 03:23:09;;;;;;;7.82;4.63;;;26.40;96.70;;;;;;4907151;29;20054;-79
2023/07/17 03:25:41;;;;;;;10.32;4.97;;;26.30;96.70;;;;;;4920006;29;20063;-79
2023/07/17 03:28:10;;;;;;;9.50;4.82;;;26.30;96.70;;;;;;4912275;29;20423;-78
2023/07/17 03:30:39;;;;;;;8.77;4.97;;;26.30;96.70;;;;;;4911779;29;20044;-79
2023/07/17 03:33:07;;;;;;;9.80;5.05;;;26.30;96.70;;;;;;4922435;29;20059;-78
2023/07/17 03:35:35;;;;;;;13.00;5.82;;;26.20;96.70;;;;;;4917985;29;20404;-78
2023/07/17 03:38:03;;;;;;;11.23;4.80;;;26.20;96.70;;;;;;4928263;29;20509;-79
2023/07/17 03:40:32;;;;;;;9.70;5.03;;;26.20;96.70;;;;;;4928438;29;20082;-78
2023/07/17 03:43:01;;;;;;;8.75;4.85;;;26.10;96.70;;;;;;4911170;29;20804;-78
2023/07/17 03:45:29;;;;;;;7.97;4.28;;;26.20;96.70;;;;;;4927569;29;20355;-77
2023/07/17 03:47:58;;;;;;;10.00;5.07;;;26.20;96.70;;;;;;4899227;29;20635;-78
2023/07/17 03:50:28;;;;;;;7.32;4.95;;;26.20;96.70;;;;;;4911417;29;20056;-79
2023/07/17 03:52:56;;;;;;;9.05;5.13;;;26.00;96.70;;;;;;4911106;29;20534;-79
2023/07/17 03:55:24;;;;;;;10.48;5.13;;;26.10;96.70;;;;;;4911208;29;20050;-80
2023/07/17 03:57:52;;;;;;;6.40;4.80;;;26.20;96.70;;;;;;4896188;29;20063;-78
2023/07/17 04:00:23;;;;;;;9.30;5.07;;;26.20;96.70;;;;;;4902784;29;20048;-79
2023/07/17 04:02:51;;;;;;;6.72;4.75;;;26.20;96.70;;;;;;4927877;29;20052;-78
2023/07/17 04:05:28;;;;;;;8.40;4.90;;;26.10;96.70;;;;;;4923966;29;20167;-78
2023/07/17 04:07:57;;;;;;;9.68;4.80;;;26.20;96.70;;;;;;4909240;29;20880;-78
2023/07/17 04:10:27;;;;;;;9.18;5.00;;;26.20;96.70;;;;;;4914373;29;20707;-78
2023/07/17 04:12:56;;;;;;;8.05;4.97;;;26.30;96.70;;;;;;4909366;29;20159;-79
2023/07/17 04:15:25;;;;;;;9.77;4.85;;;26.30;96.70;;;;;;4926333;29;20067;-79
2023/07/17 04:17:53;;;;;;;9.25;5.15;;;26.30;96.70;;;;;;4904682;29;20767;-79
2023/07/17 04:20:21;;;;;;;10.15;4.85;;;26.40;96.70;;;;;;4913397;29;20131;-79
2023/07/17 04:22:49;;;;;;;8.20;5.55;;;26.30;96.70;;;;;;4900568;29;20058;-79
2023/07/17 04:25:18;;;;;;;12.48;5.70;;;26.40;96.70;;;;;;4919743;29;20167;-78
2023/07/17 04:27:46;;;;;;;9.68;5.63;;;26.30;96.70;;;;;;4920600;29;20060;-78
2023/07/17 04:30:15;;;;;;;10.18;5.03;;;26.20;96.70;;;;;;4906966;29;20449;-78
2023/07/17 04:32:44;;;;;;;11.63;5.32;;;26.10;96.70;;;;;;4927200;29;20075;-78
2023/07/17 04:35:12;;;;;;;10.10;5.93;;;26.00;96.70;;;;;;4901693;29;20044;-79
2023/07/17 04:37:41;;;;;;;9.90;6.15;;;25.90;96.70;;;;;;4935611;28;20126;-79
2023/07/17 04:40:12;;;;;;;9.88;5.93;;;25.90;96.70;;;;;;4899505;29;20505;-78
2023/07/17 04:42:40;;;;;;;8.88;6.00;;;25.90;96.70;;;;;;4901687;29;20087;-79
2023/07/17 04:45:09;;;;;;;10.77;5.80;;;26.00;96.70;;;;;;4916489;29;20394;-78
2023/07/17 04:47:38;;;;;;;9.32;5.22;;;26.10;96.70;;;;;;4910899;29;20067;-78
2023/07/17 04:50:09;;;;;;;11.80;5.53;;;26.20;96.70;;;;;;4928314;29;20039;-80
2023/07/17 04:52:37;;;;;;;9.30;5.55;;;26.20;96.70;;;;;;4910920;29;20063;-78
2023/07/17 04:55:06;;;;;;;10.25;5.93;;;26.20;96.70;;;;;;4910924;29;20620;-78
2023/07/17 04:57:35;;;;;;;10.57;5.70;;;26.20;96.70;;;;;;4916010;29;20138;-80
2023/07/17 05:00:05;;;;;;;9.05;6.20;;;26.20;96.70;;;;;;4907069;29;20048;-77
2023/07/17 05:02:33;;;;;;;8.05;4.90;;;26.10;96.70;;;;;;4922372;29;20052;-79
2023/07/17 05:05:01;;;;;;;7.88;5.32;;;26.00;96.70;;;;;;4921561;29;20060;-78
2023/07/17 05:07:31;;;;;;;13.40;4.93;;;26.00;96.70;;;;;;4905596;29;20565;-79
2023/07/17 05:10:00;;;;;;;11.40;4.70;;;26.10;96.70;;;;;;4917992;29;20055;-80
2023/07/17 05:12:28;;;;;;;11.02;4.88;;;26.10;96.70;;;;;;4894032;29;20067;-79
2023/07/17 05:14:56;;;;;;;14.32;5.45;;;26.30;96.70;;;;;;4926690;29;20483;-79
2023/07/17 05:17:24;;;;;;;8.82;5.60;;;26.30;96.70;;;;;;4896738;29;20043;-78
2023/07/17 05:19:52;;;;;;;12.50;5.78;;;26.30;96.70;;;;;;4918329;29;20123;-79
2023/07/17 05:22:20;;;;;;;10.10;5.13;;;26.30;96.70;;;;;;4924351;29;20059;-79
2023/07/17 05:24:52;;;;;;;8.63;5.05;;;26.30;96.70;;;;;;4894272;29;20158;-79
2023/07/17 05:27:20;;;;;;;9.00;5.53;;;26.30;96.70;;;;;;4921855;29;20792;-78
2023/07/17 05:29:48;;;;;;;8.32;5.00;;;26.40;96.70;;;;;;4914317;29;20099;-79
2023/07/17 05:32:17;;;;;;;8.48;4.95;;;26.40;96.70;;;;;;4918996;29;20083;-80
2023/07/17 05:34:45;;;;;;;10.63;5.22;;;26.50;96.70;;;;;;4916496;29;20102;-79
2023/07/17 05:37:15;;;;;;;12.63;5.50;;;26.50;96.70;;;;;;4909369;29;20052;-78
2023/07/17 05:39:44;;;;;;;8.93;5.20;;;26.50;96.70;;;;;;4924885;29;20059;-79
2023/07/17 05:42:15;;;;;;;11.70;5.85;;;26.50;96.70;;;;;;4893186;29;20044;-78
2023/07/17 05:44:44;;;;;;;17.65;6.32;;;26.50;96.70;;;;;;4907801;29;20052;-79
2023/07/17 05:47:12;;;;;;;6.50;4.80;;;26.50;96.70;;;;;;4908037;29;20044;-79
2023/07/17 05:49:40;;;;;;;10.43;5.85;;;26.50;96.70;;;;;;4909073;29;20036;-78
2023/07/17 05:52:09;;;;;;;11.32;5.80;;;26.50;96.70;;;;;;4893911;29;20810;-79
2023/07/17 05:54:37;;;;;;;10.52;5.30;;;26.40;96.70;;;;;;4910114;29;20090;-78
2023/07/17 05:57:06;;;;;;;10.63;5.63;;;26.40;96.70;;;;;;4909439;29;20054;-78
2023/07/17 05:59:37;;;;;;;12.70;5.45;;;26.40;96.70;;;;;;4893963;29;20048;-79
2023/07/17 06:02:05;;;;;;;8.20;5.53;;;26.40;96.70;;;;;;4908752;29;20052;-79
2023/07/17 06:04:33;;;;;;;11.52;5.95;;;26.50;96.70;;;;;;4892802;29;20079;-79
2023/07/17 06:07:02;;;;;;;11.73;6.25;;;26.50;96.70;;;;;;4926159;29;20056;-78
2023/07/17 06:09:30;;;;;;;12.85;5.88;;;26.50;96.70;;;;;;4928851;29;20054;-78
2023/07/17 06:11:58;;;;;;;13.23;6.57;;;26.60;96.70;;;;;;4929789;29;20135;-79
2023/07/17 06:14:26;;;;;;;15.63;6.70;;;26.70;96.70;;;;;;4914478;29;20051;-79
2023/07/17 06:16:55;;;;;;;11.23;6.00;;;26.70;96.70;;;;;;4920476;29;20056;-79
2023/07/17 06:19:23;;;;;;;11.57;6.32;;;26.70;96.70;;;;;;4899335;29;20058;-79
2023/07/17 06:21:52;;;;;;;12.50;6.47;;;26.80;96.70;;;;;;4917952;29;20493;-79
2023/07/17 06:24:20;;;;;;;12.70;6.60;;;26.90;96.70;;;;;;4931403;29;20070;-80
2023/07/17 06:26:48;;;;;;;14.27;6.35;;;26.90;96.70;;;;;;4921661;29;20504;-78
2023/07/17 06:29:16;;;;;;;13.77;7.47;;;26.90;96.70;;;;;;4899813;29;20051;-78
2023/07/17 06:31:44;;;;;;;10.10;6.90;;;27.00;96.70;;;;;;4928891;28;20040;-78
2023/07/17 06:34:14;;;;;;;11.90;6.75;;;27.00;96.70;;;;;;4915882;29;20580;-78
2023/07/17 06:36:42;;;;;;;12.32;7.35;;;27.10;96.70;;;;;;4929350;29;20053;-77
2023/07/17 06:39:10;;;;;;;14.52;7.00;;;27.00;96.70;;;;;;4923257;29;20063;-78
2023/07/17 06:41:39;;;;;;;14.23;6.82;;;27.10;96.70;;;;;;4917915;29;20051;-79
2023/07/17 06:44:07;;;;;;;18.42;7.30;;;27.20;96.70;;;;;;4920900;29;20042;-80
2023/07/17 06:46:35;;;;;;;11.55;6.63;;;27.20;96.70;;;;;;4929408;29;20056;-78
2023/07/17 06:49:03;;;;;;;14.32;7.32;;;27.30;96.70;;;;;;4918042;29;20695;-79
2023/07/17 06:51:33;;;;;;;16.02;6.75;;;27.40;96.70;;;;;;4929311;29;20130;-79
2023/07/17 06:54:02;;;;;;;12.93;6.85;;;27.50;96.70;;;;;;4929121;29;20056;-80
2023/07/17 06:56:30;;;;;;;14.90;7.45;;;27.40;96.70;;;;;;4912886;29;20050;-82
2023/07/17 06:58:58;;;;;;;12.30;6.43;;;27.30;96.70;;;;;;4935494;29;20915;-81
2023/07/17 07:01:25;;;;;;;11.63;7.20;;;27.30;96.70;;;;;;4912149;29;20541;-79
2023/07/17 07:03:53;;;;;;;14.00;8.00;;;27.30;96.70;;;;;;4909855;29;20106;-79
2023/07/17 07:06:24;;;;;;;13.68;7.53;;;27.40;96.70;;;;;;4917619;29;20051;-80
2023/07/17 07:08:53;;;;;;;13.18;7.85;;;27.30;96.70;;;;;;4926473;29;20151;-79
2023/07/17 07:11:21;;;;;;;12.85;8.48;;;27.40;96.70;;;;;;4929070;29;20550;-80
2023/07/17 07:13:49;;;;;;;19.55;8.75;;;27.40;96.70;;;;;;4928991;29;20058;-79
2023/07/17 07:16:17;;;;;;;16.55;8.32;;;27.50;96.70;;;;;;4913893;29;20043;-79
2023/07/17 07:18:45;;;;;;;13.57;8.10;;;27.60;96.70;;;;;;4917525;29;20042;-80
2023/07/17 07:21:14;;;;;;;17.17;8.48;;;27.80;96.70;;;;;;4916138;29;20043;-79
2023/07/17 07:23:41;;;;;;;15.38;7.93;;;27.80;96.70;;;;;;4925902;29;20136;-79
2023/07/17 07:26:11;;;;;;;14.05;7.50;;;27.90;96.70;;;;;;4921083;29;20047;-80
2023/07/17 07:28:39;;;;;;;15.52;7.30;;;28.00;96.70;;;;;;4918035;29;20090;-81
2023/07/17 07:31:07;;;;;;;16.95;8.75;;;28.10;96.70;;;;;;4929560;29;20071;-79
2023/07/17 07:33:36;;;;;;;16.05;8.57;;;28.20;96.70;;;;;;4920875;29;20067;-81
2023/07/17 07:36:04;;;;;;;12.80;7.63;;;28.30;96.70;;;;;;4917244;29;20103;-81
2023/07/17 07:38:32;;;;;;;16.67;7.75;;;28.40;96.70;;;;;;4912246;29;20498;-80
2023/07/17 07:41:01;;;;;;;14.07;7.65;;;28.40;96.70;;;;;;4929355;29;20070;-80
2023/07/17 07:43:32;;;;;;;17.08;7.75;;;28.30;96.70;;;;;;4910415;29;20047;-80
2023/07/17 07:46:00;;;;;;;15.82;7.15;;;28.30;96.70;;;;;;4926361;29;20047;-80
2023/07/17 07:48:30;;;;;;;19.70;7.28;;;28.40;96.70;;;;;;4904494;29;20127;-81
2023/07/17 07:50:58;;;;;;;13.85;6.65;;;28.50;96.70;;;;;;4927854;29;20533;-80
2023/07/17 07:53:26;;;;;;;12.43;6.13;;;28.50;96.70;;;;;;4910725;29;20043;-80
2023/07/17 07:56:09;;;;;;;11.45;6.50;;;28.60;96.70;;;;;;4920454;29;20428;-81
2023/07/17 07:58:39;;;;;;;13.32;6.05;;;28.50;96.70;;;;;;4928513;29;20472;-81
2023/07/17 08:01:07;;;;;;;12.50;6.50;;;28.60;96.70;;;;;;4920032;29;20600;-79
2023/07/17 08:03:35;;;;;;;11.00;6.65;;;28.70;96.70;;;;;;4928544;29;20628;-82
2023/07/17 08:06:04;;;;;;;10.85;6.28;;;28.70;96.70;;;;;;4928636;29;20040;-82
2023/07/17 08:08:32;;;;;;;9.95;6.53;;;28.80;96.70;;;;;;4927919;29;20048;-81
2023/07/17 08:11:01;;;;;;;13.25;6.65;;;28.80;96.70;;;;;;4909802;29;20064;-80
2023/07/17 08:13:29;;;;;;;13.60;6.80;;;28.80;96.70;;;;;;4917342;29;20057;-79
2023/07/17 08:15:59;;;;;;;11.35;5.53;;;28.90;96.70;;;;;;4928298;29;20044;-80
2023/07/17 08:18:28;;;;;;;15.43;6.75;;;28.90;96.70;;;;;;4928307;29;20047;-80
2023/07/17 08:20:56;;;;;;;11.82;6.32;;;28.90;96.70;;;;;;4919315;29;20476;-81
2023/07/17 08:23:28;;;;;;;16.60;6.68;;;29.00;96.70;;;;;;4914580;29;20056;-80
2023/07/17 08:25:56;;;;;;;9.25;5.25;;;29.10;96.70;;;;;;4928037;29;20150;-81
2023/07/17 08:28:24;;;;;;;9.52;5.43;;;29.20;96.70;;;;;;4918854;29;20052;-80
2023/07/17 08:30:53;;;;;;;9.70;5.82;;;29.40;96.70;;;;;;4910195;29;20063;-80
2023/07/17 08:33:23;;;;;;;19.92;6.50;;;29.40;96.70;;;;;;4916812;29;20625;-81
2023/07/17 08:35:51;;;;;;;13.95;6.47;;;29.50;96.70;;;;;;4914890;29;20043;-80
2023/07/17 08:38:19;;;;;;;8.55;6.07;;;29.50;96.70;;;;;;4915679;29;20075;-80
2023/07/17 08:40:52;;;;;;;14.02;5.30;;;29.50;96.70;;;;;;4911334;29;20052;-80
2023/07/17 08:43:23;;;;;;;10.25;5.38;;;29.60;96.70;;;;;;4904901;29;20099;-80
2023/07/17 08:45:52;;;;;;;12.55;5.18;;;29.70;96.70;;;;;;4918020;29;20105;-81
2023/07/17 08:48:24;;;;;;;9.98;4.90;;;29.80;96.70;;;;;;4907102;29;20074;-81
2023/07/17 08:50:53;;;;;;;12.88;5.53;;;29.90;96.70;;;;;;4927869;29;20082;-81
2023/07/17 08:53:25;;;;;;;11.60;4.82;;;30.00;96.70;;;;;;4910067;29;20054;-81
2023/07/17 08:55:56;;;;;;;9.70;5.88;;;30.10;96.70;;;;;;4919390;29;20118;-81
2023/07/17 08:58:26;;;;;;;8.45;5.28;;;30.20;96.70;;;;;;4915724;29;20079;-81
2023/07/17 09:00:55;;;;;;;8.00;5.97;;;30.30;96.70;;;;;;4915141;29;20412;-81
2023/07/17 09:03:25;;;;;;;10.35;5.45;;;30.20;96.70;;;;;;4910950;29;20074;-83
2023/07/17 09:05:54;;;;;;;9.02;5.88;;;30.30;96.70;;;;;;4920216;29;20189;-80
2023/07/17 09:08:22;;;;;;;11.32;5.75;;;30.40;96.70;;;;;;4919039;29;20206;-81
2023/07/17 09:11:01;;;;;;;8.80;5.07;;;30.50;96.70;;;;;;4928125;29;20068;-80
2023/07/17 09:13:37;;;;;;;12.13;5.18;;;30.60;96.70;;;;;;4934401;28;20051;-80
2023/07/17 09:16:14;;;;;;;11.80;5.53;;;30.80;96.70;;;;;;4920026;29;20054;-80
2023/07/17 09:18:44;;;;;;;12.02;6.78;;;30.70;96.70;;;;;;4918502;29;20236;-80
2023/07/17 09:21:14;;;;;;;11.75;5.57;;;30.70;96.70;;;;;;4919219;29;20062;-79
2023/07/17 09:23:45;;;;;;;11.32;5.10;;;30.70;96.70;;;;;;4911403;29;20090;-80
2023/07/17 09:26:14;;;;;;;9.30;5.05;;;30.80;96.70;;;;;;4927356;29;20570;-80
2023/07/17 09:28:48;;;;;;;14.13;5.63;;;30.80;96.70;;;;;;4914697;29;20191;-80
2023/07/17 09:31:27;;;;;;;9.23;5.00;;;30.90;96.70;;;;;;4927585;29;20059;-80
2023/07/17 09:33:58;;;;;;;9.65;5.55;;;30.90;96.70;;;;;;4919941;29;20087;-80
2023/07/17 09:36:29;;;;;;;13.60;6.38;;;31.00;96.70;;;;;;4927173;29;20127;-81
2023/07/17 09:38:59;;;;;;;8.73;4.82;;;31.00;96.70;;;;;;4903393;29;20048;-80
2023/07/17 09:41:28;;;;;;;11.70;5.97;;;31.10;96.70;;;;;;4927638;29;20086;-80
2023/07/17 09:44:00;;;;;;;10.27;5.45;;;31.10;96.70;;;;;;4914834;29;20047;-80
2023/07/17 09:46:30;;;;;;;10.65;4.82;;;31.10;96.70;;;;;;4931482;29;20047;-80
2023/07/17 09:49:01;;;;;;;9.98;4.38;;;31.20;96.70;;;;;;4908425;29;20338;-80
2023/07/17 09:51:30;;;;;;;12.52;5.43;;;31.20;96.70;;;;;;4928763;29;20512;-81
2023/07/17 09:54:02;;;;;;;6.75;4.43;;;31.30;96.70;;;;;;4914798;29;20043;-80
2023/07/17 09:56:33;;;;;;;8.15;4.20;;;31.40;96.70;;;;;;4926304;29;20086;-80
2023/07/17 09:59:15;;;;;;;7.20;4.78;;;31.30;96.70;;;;;;4930215;29;20098;-79
2023/07/17 10:01:47;;;;;;;9.98;3.90;;;31.40;96.70;;;;;;4931375;29;20051;-81
2023/07/17 10:04:33;;;;;;;8.02;4.22;;;31.60;96.70;;;;;;4925844;29;20063;-80
2023/07/17 10:07:02;;;;;;;6.78;4.15;;;31.70;96.70;;;;;;4930447;29;20044;-80
2023/07/17 10:09:35;;;;;;;6.45;4.00;;;31.80;96.70;;;;;;4897667;29;20110;-80
2023/07/17 10:12:07;;;;;;;8.60;4.13;;;31.90;96.70;;;;;;4916975;28;20043;-79
2023/07/17 10:14:36;;;;;;;8.65;4.43;;;32.00;96.70;;;;;;4917471;29;20180;-81
2023/07/17 10:17:21;;;;;;;7.40;4.30;;;32.20;96.70;;;;;;4914132;29;20079;-79
2023/07/17 10:19:51;;;;;;;11.05;4.38;;;32.40;96.70;;;;;;4916625;29;20047;-80
2023/07/17 10:22:20;;;;;;;9.65;4.18;;;32.40;96.70;;;;;;4907623;29;20051;-80
2023/07/17 10:24:48;;;;;;;7.82;4.35;;;32.40;96.70;;;;;;4914250;29;20510;-81
2023/07/17 10:27:17;;;;;;;5.40;3.65;;;32.50;96.70;;;;;;4929821;29;20048;-80
2023/07/17 10:29:45;;;;;;;6.93;4.40;;;32.50;96.70;;;;;;4922496;29;20058;-80
2023/07/17 10:32:15;;;;;;;11.57;4.95;;;32.50;96.70;;;;;;4930370;29;20052;-80
2023/07/17 10:34:53;;;;;;;10.77;4.32;;;32.50;96.70;;;;;;4919390;29;20083;-80
2023/07/17 10:37:40;;;;;;;6.63;4.03;;;32.60;96.70;;;;;;4921373;29;20494;-79
2023/07/17 10:40:28;;;;;;;5.90;4.43;;;32.60;96.70;;;;;;4914337;29;20107;-80
2023/07/17 10:43:11;;;;;;;9.38;4.40;;;32.80;96.70;;;;;;4911968;29;20048;-79
2023/07/17 10:45:39;;;;;;;7.78;4.45;;;33.00;96.70;;;;;;4904656;29;20071;-80
2023/07/17 10:48:08;;;;;;;7.22;4.30;;;33.10;96.70;;;;;;4905876;29;20055;-78
2023/07/17 10:50:39;;;;;;;9.50;4.15;;;33.10;96.70;;;;;;4930100;29;20897;-80
2023/07/17 10:53:09;;;;;;;10.80;4.82;;;33.20;96.70;;;;;;4917050;29;20047;-80
2023/07/17 10:55:37;;;;;;;8.65;4.50;;;33.30;96.70;;;;;;4906904;29;20406;-80
2023/07/17 10:58:05;;;;;;;8.13;4.15;;;33.40;96.70;;;;;;4927515;29;20047;-81
2023/07/17 11:00:34;;;;;;;9.02;4.70;;;33.50;96.70;;;;;;4913340;29;21306;-79
2023/07/17 11:03:03;;;;;;;7.13;4.47;;;33.50;96.70;;;;;;4929742;29;20069;-80
2023/07/17 11:05:38;;;;;;;9.57;4.35;;;33.80;96.70;;;;;;4912078;29;20131;-80
2023/07/17 11:08:07;;;;;;;9.63;4.15;;;33.90;96.70;;;;;;4911727;29;20052;-80
2023/07/17 11:10:38;;;;;;;6.28;3.88;;;33.90;96.70;;;;;;4911611;29;20048;-78
2023/07/17 11:13:07;;;;;;;8.57;4.07;;;33.80;96.70;;;;;;4929322;29;20103;-79
2023/07/17 11:15:37;;;;;;;8.50;4.43;;;34.00;96.70;;;;;;4912921;29;20044;-81
2023/07/17 11:18:07;;;;;;;7.40;3.92;;;34.10;96.70;;;;;;4929511;29;20065;-79
2023/07/17 11:20:39;;;;;;;8.65;4.25;;;34.10;96.70;;;;;;4910810;29;20059;-79
2023/07/17 11:23:11;;;;;;;10.10;4.20;;;34.20;96.70;;;;;;4921577;29;20455;-80
2023/07/17 11:25:40;;;;;;;7.28;4.07;;;34.40;96.70;;;;;;4929127;29;20502;-79
2023/07/17 11:28:10;;;;;;;8.20;4.65;;;34.50;96.70;;;;;;4912334;29;20075;-81
2023/07/17 11:30:39;;;;;;;7.28;3.65;;;34.50;96.70;;;;;;4929331;29;20046;-80
2023/07/17 11:33:08;;;;;;;6.07;3.80;;;34.60;96.70;;;;;;4909885;29;20407;-81
2023/07/17 11:35:43;;;;;;;7.32;3.85;;;34.50;96.70;;;;;;4929027;29;20051;-81
2023/07/17 11:38:14;;;;;;;8.32;4.53;;;34.60;96.70;;;;;;4912212;29;20051;-81
2023/07/17 11:40:56;;;;;;;7.05;4.20;;;34.70;96.70;;;;;;4928675;29;20051;-80
2023/07/17 11:43:27;;;;;;;7.22;3.70;;;34.70;96.70;;;;;;4919941;29;20058;-82
2023/07/17 11:46:01;;;;;;;7.40;3.88;;;34.80;96.70;;;;;;4928878;29;20131;-81
2023/07/17 11:48:31;;;;;;;8.23;3.70;;;34.80;96.70;;;;;;4915034;29;20083;-80
2023/07/17 11:51:02;;;;;;;11.43;4.75;;;34.90;96.70;;;;;;4922732;29;20438;-82
2023/07/17 11:53:31;;;;;;;7.72;4.38;;;34.90;96.70;;;;;;4925649;29;20067;-81
2023/07/17 11:56:00;;;;;;;5.78;4.28;;;35.10;96.70;;;;;;4920552;29;20044;-80
2023/07/17 11:58:31;;;;;;;8.30;3.95;;;35.20;96.70;;;;;;4916154;29;20055;-81
2023/07/17 12:01:00;;;;;;;6.82;3.70;;;35.30;96.70;;;;;;4929207;29;20666;-81
2023/07/17 12:03:29;;;;;;;9.27;3.72;;;35.30;96.70;;;;;;4912503;29;20135;-81
2023/07/17 12:05:57;;;;;;;7.30;4.03;;;35.40;96.70;;;;;;4916504;29;20418;-83
2023/07/17 12:08:28;;;;;;;10.93;4.10;;;35.30;96.70;;;;;;4912710;29;20062;-82
2023/07/17 12:10:57;;;;;;;7.70;3.78;;;35.40;96.70;;;;;;4921018;29;20047;-83
2023/07/17 12:13:25;;;;;;;8.43;3.85;;;35.50;96.70;;;;;;4929179;29;20490;-81
2023/07/17 12:15:53;;;;;;;10.07;4.25;;;35.50;96.70;;;;;;4925940;29;20048;-83
2023/07/17 12:18:21;;;;;;;7.75;3.67;;;35.50;96.70;;;;;;4932418;29;20090;-82
2023/07/17 12:20:50;;;;;;;8.65;4.20;;;35.60;96.70;;;;;;4920089;29;20043;-82
2023/07/17 12:23:21;;;;;;;10.52;4.25;;;35.80;96.70;;;;;;4928926;29;20047;-81
2023/07/17 12:25:51;;;;;;;8.20;4.10;;;35.80;96.70;;;;;;4921379;29;20058;-81
2023/07/17 12:28:23;;;;;;;8.60;3.80;;;35.80;96.70;;;;;;4928037;29;20059;-80
2023/07/17 12:30:53;;;;;;;8.38;4.10;;;36.00;96.70;;;;;;4926953;29;20055;-80
2023/07/17 12:33:21;;;;;;;8.73;3.90;;;36.00;96.70;;;;;;4898732;29;20040;-80
2023/07/17 12:35:49;;;;;;;9.32;3.95;;;36.00;96.70;;;;;;4911480;29;20107;-82
2023/07/17 12:38:18;;;;;;;11.20;4.82;;;36.10;96.70;;;;;;4930810;29;20106;-79
2023/07/17 12:40:47;;;;;;;6.82;4.32;;;36.10;96.70;;;;;;4912816;29;20036;-80
2023/07/17 12:43:18;;;;;;;11.68;4.00;;;36.30;96.70;;;;;;4928060;29;20047;-81
2023/07/17 12:45:47;;;;;;;7.82;3.80;;;36.40;96.70;;;;;;4927235;29;20490;-81
2023/07/17 12:48:15;;;;;;;9.10;4.13;;;36.30;96.70;;;;;;4917455;29;20842;-82
2023/07/17 12:50:43;;;;;;;9.77;4.63;;;36.30;96.70;;;;;;4916261;29;20119;-82
2023/07/17 12:53:11;;;;;;;7.85;3.50;;;36.20;96.70;;;;;;4911562;29;20047;-82
2023/07/17 12:55:40;;;;;;;8.27;3.47;;;36.20;96.70;;;;;;4924151;29;20171;-81